createdAt,value
2019-01-05T00:00:29.735Z,4.06
2019-01-05T00:01:29.700Z,3.98
2019-01-05T00:02:29.686Z,3.98
2019-01-05T00:03:29.720Z,4.06
2019-01-05T00:04:29.666Z,4.06
2019-01-05T00:05:29.665Z,4.00
2019-01-05T00:06:29.645Z,4.05
2019-01-05T00:07:29.635Z,4.06
2019-01-05T00:08:29.639Z,4.06
2019-01-05T00:09:29.613Z,4.03
2019-01-05T00:10:29.616Z,3.99
2019-01-05T00:11:29.610Z,4.08
2019-01-05T00:12:29.580Z,4.08
2019-01-05T00:13:29.626Z,4.13
2019-01-05T00:14:29.559Z,4.12
2019-01-05T00:15:29.565Z,4.10
2019-01-05T00:16:29.545Z,4.17
2019-01-05T00:17:29.529Z,4.10
2019-01-05T00:18:29.541Z,4.16
2019-01-05T00:19:29.523Z,4.21
2019-01-05T00:20:29.507Z,4.26
2019-01-05T00:21:29.486Z,4.13
2019-01-05T00:22:29.479Z,4.20
2019-01-05T00:23:29.510Z,4.23
2019-01-05T00:24:29.459Z,4.27
2019-01-05T00:25:29.444Z,4.20
2019-01-05T00:26:29.430Z,4.18
2019-01-05T00:27:29.420Z,4.23
2019-01-05T00:28:29.413Z,4.23
2019-01-05T00:29:29.430Z,4.20
2019-01-05T00:30:29.389Z,4.24
2019-01-05T00:31:29.387Z,4.10
2019-01-05T00:32:29.369Z,4.20
2019-01-05T00:33:29.357Z,4.24
2019-01-05T00:34:29.387Z,4.18
2019-01-05T00:35:29.339Z,4.27
2019-01-05T00:36:29.327Z,4.23
2019-01-05T00:37:29.390Z,4.26
2019-01-05T00:38:29.301Z,4.28
2019-01-05T00:39:29.302Z,4.30
2019-01-05T00:40:29.302Z,4.30
2019-01-05T00:41:29.274Z,4.31
2019-01-05T00:42:29.259Z,4.35
2019-01-05T00:43:29.249Z,4.28
2019-01-05T00:44:29.243Z,4.35
2019-01-05T00:45:29.268Z,4.27
2019-01-05T00:46:29.224Z,4.26
2019-01-05T00:47:29.214Z,4.42
2019-01-05T00:48:29.201Z,4.38
2019-01-05T00:49:29.185Z,4.39
2019-01-05T00:50:29.199Z,4.34
2019-01-05T00:51:29.168Z,4.27
2019-01-05T00:52:29.179Z,4.41
2019-01-05T00:53:29.145Z,4.27
2019-01-05T00:54:29.135Z,4.42
2019-01-05T00:55:29.170Z,4.45
2019-01-05T00:56:29.111Z,4.31
2019-01-05T00:57:29.114Z,4.34
2019-01-05T00:58:29.126Z,4.43
2019-01-05T00:59:29.079Z,4.36
2019-01-05T01:00:29.073Z,4.45
2019-01-05T01:01:29.078Z,4.46
2019-01-05T01:02:29.046Z,4.38
2019-01-05T01:03:29.043Z,4.45
2019-01-05T01:04:29.031Z,4.51
2019-01-05T01:05:29.013Z,4.43
2019-01-05T01:06:29.022Z,4.43
2019-01-05T01:07:29.007Z,4.39
2019-01-05T01:08:28.981Z,4.45
2019-01-05T01:09:28.967Z,4.43
2019-01-05T01:10:28.965Z,4.45
2019-01-05T01:11:28.971Z,4.34
2019-01-05T01:12:28.934Z,4.45
2019-01-05T01:13:28.924Z,4.36
2019-01-05T01:14:28.921Z,4.42
2019-01-05T01:15:28.908Z,4.35
2019-01-05T01:16:28.933Z,4.36
2019-01-05T01:17:28.882Z,4.45
2019-01-05T01:18:28.868Z,4.34
2019-01-05T01:19:28.870Z,4.43
2019-01-05T01:20:28.850Z,4.48
2019-01-05T01:21:28.845Z,4.45
2019-01-05T01:22:28.842Z,4.45
2019-01-05T01:23:28.816Z,4.38
2019-01-05T01:24:28.806Z,4.41
2019-01-05T01:25:28.815Z,4.43
2019-01-05T01:26:28.783Z,4.48
2019-01-05T01:27:28.792Z,4.46
2019-01-05T01:28:28.758Z,4.48
2019-01-05T01:29:28.747Z,4.42
2019-01-05T01:30:28.738Z,4.45
2019-01-05T01:31:28.746Z,4.41
2019-01-05T01:32:28.731Z,4.45
2019-01-05T01:33:28.712Z,4.45
2019-01-05T01:34:28.710Z,4.49
2019-01-05T01:35:28.683Z,4.36
2019-01-05T01:36:28.677Z,4.48
2019-01-05T01:37:28.704Z,4.53
2019-01-05T01:38:28.655Z,4.48
2019-01-05T01:39:28.641Z,4.53
2019-01-05T01:40:28.628Z,4.48
2019-01-05T01:41:28.617Z,4.45
2019-01-05T01:42:28.620Z,4.56
2019-01-05T01:43:28.619Z,4.42
2019-01-05T01:44:28.587Z,4.53
2019-01-05T01:45:28.589Z,4.53
2019-01-05T01:46:28.564Z,4.45
2019-01-05T01:47:28.555Z,4.51
2019-01-05T01:48:28.588Z,4.49
2019-01-05T01:49:28.530Z,4.53
2019-01-05T01:50:28.525Z,4.43
2019-01-05T01:51:28.519Z,4.56
2019-01-05T01:52:28.496Z,4.56
2019-01-05T01:53:28.491Z,4.53
2019-01-05T01:54:28.508Z,4.45
2019-01-05T01:55:28.463Z,4.53
2019-01-05T01:56:28.463Z,4.49
2019-01-05T01:57:28.442Z,4.56
2019-01-05T01:58:28.437Z,4.61
2019-01-05T01:59:28.447Z,4.51
2019-01-05T02:00:28.414Z,4.49
2019-01-05T02:01:28.403Z,4.61
2019-01-05T02:02:28.389Z,4.60
2019-01-05T02:03:28.392Z,4.53
2019-01-05T02:04:28.368Z,4.51
2019-01-05T02:05:28.375Z,4.48
2019-01-05T02:06:28.346Z,4.53
2019-01-05T02:07:28.347Z,4.48
2019-01-05T02:08:28.336Z,4.45
2019-01-05T02:09:28.314Z,4.46
2019-01-05T02:10:28.322Z,4.56
2019-01-05T02:11:28.300Z,4.45
2019-01-05T02:12:28.290Z,4.56
2019-01-05T02:13:28.273Z,4.49
2019-01-05T02:14:28.278Z,4.46
2019-01-05T02:15:28.288Z,4.42
2019-01-05T02:16:28.240Z,4.43
2019-01-05T02:17:28.230Z,4.48
2019-01-05T02:18:28.217Z,4.41
2019-01-05T02:19:28.243Z,4.42
2019-01-05T02:20:28.197Z,4.41
2019-01-05T02:21:28.236Z,4.45
2019-01-05T02:22:28.180Z,4.41
2019-01-05T02:23:28.184Z,4.54
2019-01-05T02:24:28.168Z,4.48
2019-01-05T02:25:28.139Z,4.46
2019-01-05T02:26:28.153Z,4.49
2019-01-05T02:27:28.120Z,4.51
2019-01-05T02:28:28.113Z,4.46
2019-01-05T02:29:28.097Z,4.46
2019-01-05T02:30:28.129Z,4.48
2019-01-05T02:31:28.096Z,4.42
2019-01-05T02:32:28.070Z,4.51
2019-01-05T02:33:28.074Z,4.56
2019-01-05T02:34:28.052Z,4.45
2019-01-05T02:35:28.036Z,4.49
2019-01-05T02:36:28.047Z,4.41
2019-01-05T02:37:28.016Z,4.42
2019-01-05T02:38:28.018Z,4.54
2019-01-05T02:39:27.999Z,4.49
2019-01-05T02:40:28.014Z,4.49
2019-01-05T02:41:27.967Z,4.46
2019-01-05T02:42:27.984Z,4.45
2019-01-05T02:43:27.947Z,4.53
2019-01-05T02:44:27.934Z,4.54
2019-01-05T02:45:27.929Z,4.49
2019-01-05T02:46:27.924Z,4.49
2019-01-05T02:47:27.911Z,4.57
2019-01-05T02:48:27.938Z,4.48
2019-01-05T02:49:27.892Z,4.54
2019-01-05T02:50:27.896Z,4.46
2019-01-05T02:51:27.859Z,4.61
2019-01-05T02:52:27.848Z,4.59
2019-01-05T02:53:27.855Z,4.54
2019-01-05T02:54:27.850Z,4.61
2019-01-05T02:55:27.819Z,4.60
2019-01-05T02:56:27.808Z,4.53
2019-01-05T02:57:35.342Z,4.57
2019-01-05T02:58:27.805Z,4.57
2019-01-05T02:59:27.772Z,4.54
2019-01-05T03:00:27.767Z,4.56
2019-01-05T03:01:27.752Z,4.56
2019-01-05T03:02:27.772Z,4.54
2019-01-05T03:03:27.770Z,4.63
2019-01-05T03:04:27.722Z,4.61
2019-01-05T03:05:27.717Z,4.53
2019-01-05T03:06:27.709Z,4.57
2019-01-05T03:07:27.748Z,4.57
2019-01-05T03:08:27.688Z,4.61
2019-01-05T03:09:27.683Z,4.69
2019-01-05T03:10:27.654Z,4.57
2019-01-05T03:11:27.647Z,4.63
2019-01-05T03:12:27.631Z,4.71
2019-01-05T03:13:27.620Z,4.63
2019-01-05T03:14:27.657Z,4.61
2019-01-05T03:15:27.596Z,4.71
2019-01-05T03:16:27.587Z,4.64
2019-01-05T03:17:27.574Z,4.71
2019-01-05T03:18:27.576Z,4.67
2019-01-05T03:19:27.565Z,4.67
2019-01-05T03:20:27.566Z,4.61
2019-01-05T03:21:27.526Z,4.72
2019-01-05T03:22:27.524Z,4.72
2019-01-05T03:23:27.505Z,4.74
2019-01-05T03:24:27.495Z,4.69
2019-01-05T03:25:27.511Z,4.74
2019-01-05T03:26:27.474Z,4.72
2019-01-05T03:27:27.467Z,4.75
2019-01-05T03:28:27.460Z,4.66
2019-01-05T03:29:27.439Z,4.74
2019-01-05T03:30:27.453Z,4.75
2019-01-05T03:31:27.442Z,4.72
2019-01-05T03:32:27.423Z,4.75
2019-01-05T03:33:27.395Z,4.77
2019-01-05T03:34:27.394Z,4.74
2019-01-05T03:35:27.411Z,4.77
2019-01-05T03:36:27.389Z,4.72
2019-01-05T03:37:27.374Z,4.71
2019-01-05T03:38:27.341Z,4.74
2019-01-05T03:39:27.335Z,4.83
2019-01-05T03:40:37.653Z,4.71
2019-01-05T03:41:27.317Z,4.82
2019-01-05T03:42:27.303Z,4.75
2019-01-05T03:43:34.849Z,4.72
2019-01-05T03:44:34.823Z,4.83
2019-01-05T03:45:34.817Z,4.69
2019-01-05T03:46:37.334Z,4.74
2019-01-05T03:47:34.789Z,4.83
2019-01-05T03:48:34.784Z,4.74
2019-01-05T03:49:36.049Z,4.78
2019-01-05T03:50:34.760Z,4.75
2019-01-05T03:51:36.071Z,4.83
2019-01-05T03:52:34.736Z,4.83
2019-01-05T03:53:34.733Z,4.82
2019-01-05T03:54:34.724Z,4.77
2019-01-05T03:55:34.700Z,4.79
2019-01-05T03:56:35.742Z,4.83
2019-01-05T03:57:35.737Z,4.82
2019-01-05T03:58:34.697Z,4.71
2019-01-05T03:59:34.661Z,4.85
2019-01-05T04:00:34.665Z,4.78
2019-01-05T04:01:35.946Z,4.86
2019-01-05T04:02:34.629Z,4.79
2019-01-05T04:03:34.614Z,4.79
2019-01-05T04:04:34.605Z,4.82
2019-01-05T04:05:27.052Z,4.88
2019-01-05T04:06:27.042Z,4.88
2019-01-05T04:07:27.059Z,4.85
2019-01-05T04:08:27.025Z,4.83
2019-01-05T04:09:27.013Z,4.78
2019-01-05T04:10:34.561Z,4.88
2019-01-05T04:11:26.993Z,4.82
2019-01-05T04:12:26.996Z,4.88
2019-01-05T04:13:26.968Z,4.78
2019-01-05T04:14:26.970Z,4.83
2019-01-05T04:15:26.957Z,4.89
2019-01-05T04:16:26.937Z,4.82
2019-01-05T04:17:26.971Z,4.89
2019-01-05T04:18:26.966Z,4.85
2019-01-05T04:19:26.902Z,4.91
2019-01-05T04:20:26.911Z,4.83
2019-01-05T04:21:26.884Z,4.88
2019-01-05T04:22:26.886Z,4.85
2019-01-05T04:23:26.879Z,4.77
2019-01-05T04:24:26.849Z,4.82
2019-01-05T04:25:26.837Z,4.82
2019-01-05T04:26:26.831Z,4.83
2019-01-05T04:27:26.819Z,4.83
2019-01-05T04:28:26.849Z,4.83
2019-01-05T04:29:26.797Z,4.89
2019-01-05T04:30:26.783Z,4.89
2019-01-05T04:31:26.780Z,4.83
2019-01-05T04:32:26.763Z,4.89
2019-01-05T04:33:26.776Z,4.86
2019-01-05T04:34:26.735Z,4.88
2019-01-05T04:35:26.735Z,4.89
2019-01-05T04:36:26.718Z,4.96
2019-01-05T04:37:26.705Z,4.82
2019-01-05T04:38:26.753Z,4.88
2019-01-05T04:39:26.684Z,4.91
2019-01-05T04:40:26.674Z,4.97
2019-01-05T04:41:26.669Z,4.89
2019-01-05T04:42:26.653Z,4.94
2019-01-05T04:43:26.634Z,4.94
2019-01-05T04:44:26.651Z,4.93
2019-01-05T04:45:26.618Z,4.93
2019-01-05T04:46:26.607Z,4.91
2019-01-05T04:47:26.603Z,4.82
2019-01-05T04:48:26.587Z,4.89
2019-01-05T04:49:26.584Z,4.94
2019-01-05T04:50:26.576Z,4.97
2019-01-05T04:51:26.553Z,4.96
2019-01-05T04:52:26.571Z,4.96
2019-01-05T04:53:26.526Z,4.98
2019-01-05T04:54:26.514Z,4.93
2019-01-05T04:55:26.520Z,5.07
2019-01-05T04:56:26.495Z,5.04
2019-01-05T04:57:26.483Z,5.06
2019-01-05T04:58:26.500Z,5.04
2019-01-05T04:59:26.460Z,5.04
2019-01-05T05:00:26.466Z,5.04
2019-01-05T05:01:26.443Z,5.04
2019-01-05T05:02:26.426Z,4.98
2019-01-05T05:03:26.417Z,5.03
2019-01-05T05:04:26.402Z,5.04
2019-01-05T05:05:26.421Z,5.01
2019-01-05T05:06:26.393Z,4.98
2019-01-05T05:07:26.373Z,5.07
2019-01-05T05:08:26.363Z,5.06
2019-01-05T05:09:26.349Z,5.03
2019-01-05T05:10:26.428Z,5.06
2019-01-05T05:11:26.333Z,5.04
2019-01-05T05:12:26.323Z,5.07
2019-01-05T05:13:26.308Z,5.07
2019-01-05T05:14:26.296Z,5.09
2019-01-05T05:15:26.291Z,5.09
2019-01-05T05:16:26.288Z,5.18
2019-01-05T05:17:26.259Z,5.16
2019-01-05T05:18:26.254Z,5.19
2019-01-05T05:19:26.236Z,5.15
2019-01-05T05:20:26.226Z,5.19
2019-01-05T05:21:26.234Z,5.24
2019-01-05T05:22:26.209Z,5.29
2019-01-05T05:23:26.195Z,5.27
2019-01-05T05:24:26.197Z,5.24
2019-01-05T05:25:26.226Z,5.25
2019-01-05T05:26:26.203Z,5.30
2019-01-05T05:27:26.172Z,5.29
2019-01-05T05:28:26.197Z,5.30
2019-01-05T05:29:26.186Z,5.32
2019-01-05T05:30:26.120Z,5.30
2019-01-05T05:31:26.145Z,5.43
2019-01-05T05:32:26.114Z,5.37
2019-01-05T05:33:26.090Z,5.34
2019-01-05T05:34:26.083Z,5.39
2019-01-05T05:35:26.113Z,5.39
2019-01-05T05:36:26.083Z,5.39
2019-01-05T05:37:26.047Z,5.37
2019-01-05T05:38:26.059Z,5.44
2019-01-05T05:39:26.059Z,5.44
2019-01-05T05:40:26.055Z,5.47
2019-01-05T05:41:26.011Z,5.41
2019-01-05T05:42:26.018Z,5.43
2019-01-05T05:43:25.987Z,5.44
2019-01-05T05:44:25.970Z,5.41
2019-01-05T05:45:25.972Z,5.48
2019-01-05T05:46:26.002Z,5.43
2019-01-05T05:47:25.963Z,5.48
2019-01-05T05:48:25.970Z,5.48
2019-01-05T05:49:25.933Z,5.52
2019-01-05T05:50:25.907Z,5.50
2019-01-05T05:51:25.934Z,5.55
2019-01-05T05:52:25.932Z,5.51
2019-01-05T05:53:25.946Z,5.51
2019-01-05T05:54:25.917Z,5.50
2019-01-05T05:55:25.892Z,5.51
2019-01-05T05:56:25.872Z,5.54
2019-01-05T05:57:25.834Z,5.50
2019-01-05T05:58:25.841Z,5.59
2019-01-05T05:59:25.810Z,5.62
2019-01-05T06:00:25.837Z,5.62
2019-01-05T06:01:25.786Z,5.59
2019-01-05T06:02:25.779Z,5.61
2019-01-05T06:03:25.787Z,5.59
2019-01-05T06:04:25.755Z,5.58
2019-01-05T06:05:25.791Z,5.59
2019-01-05T06:06:25.744Z,5.59
2019-01-05T06:07:25.724Z,5.62
2019-01-05T06:08:25.738Z,5.62
2019-01-05T06:09:25.709Z,5.73
2019-01-05T06:10:25.701Z,5.76
2019-01-05T06:11:25.682Z,5.72
2019-01-05T06:12:25.669Z,5.69
2019-01-05T06:13:25.682Z,5.69
2019-01-05T06:14:25.647Z,5.70
2019-01-05T06:15:25.649Z,5.79
2019-01-05T06:16:25.631Z,5.70
2019-01-05T06:17:25.629Z,5.85
2019-01-05T06:18:25.604Z,5.76
2019-01-05T06:19:25.625Z,5.82
2019-01-05T06:20:25.579Z,5.87
2019-01-05T06:21:25.572Z,5.84
2019-01-05T06:22:25.563Z,5.82
2019-01-05T06:23:25.551Z,5.79
2019-01-05T06:24:25.555Z,5.84
2019-01-05T06:25:25.528Z,5.87
2019-01-05T06:26:25.515Z,5.79
2019-01-05T06:27:25.506Z,5.76
2019-01-05T06:28:25.499Z,5.82
2019-01-05T06:29:25.504Z,5.84
2019-01-05T06:30:25.474Z,5.93
2019-01-05T06:31:25.474Z,5.93
2019-01-05T06:32:25.459Z,5.91
2019-01-05T06:33:25.444Z,5.90
2019-01-05T06:34:25.435Z,5.95
2019-01-05T06:35:25.451Z,5.93
2019-01-05T06:36:25.417Z,5.90
2019-01-05T06:37:25.402Z,5.93
2019-01-05T06:38:25.387Z,5.94
2019-01-05T06:39:25.382Z,5.95
2019-01-05T06:40:25.388Z,5.95
2019-01-05T06:41:25.355Z,5.93
2019-01-05T06:42:25.350Z,5.90
2019-01-05T06:43:25.336Z,6.00
2019-01-05T06:44:25.324Z,6.05
2019-01-05T06:45:25.355Z,6.06
2019-01-05T06:46:25.324Z,6.03
2019-01-05T06:47:25.296Z,6.02
2019-01-05T06:48:25.287Z,6.11
2019-01-05T06:49:25.274Z,6.12
2019-01-05T06:50:25.260Z,6.06
2019-01-05T06:51:25.266Z,6.11
2019-01-05T06:52:25.246Z,6.06
2019-01-05T06:53:25.238Z,6.06
2019-01-05T06:54:25.245Z,6.08
2019-01-05T06:55:25.204Z,6.06
2019-01-05T06:56:25.214Z,6.13
2019-01-05T06:57:25.189Z,6.00
2019-01-05T06:58:25.174Z,6.09
2019-01-05T06:59:25.163Z,6.12
2019-01-05T07:00:25.173Z,6.05
2019-01-05T07:01:25.175Z,6.12
2019-01-05T07:02:25.130Z,6.08
2019-01-05T07:03:25.120Z,6.16
2019-01-05T07:04:25.112Z,6.08
2019-01-05T07:05:25.098Z,6.08
2019-01-05T07:06:25.095Z,6.02
2019-01-05T07:07:25.117Z,6.08
2019-01-05T07:08:25.065Z,6.19
2019-01-05T07:09:25.060Z,6.19
2019-01-05T07:10:25.044Z,6.19
2019-01-05T07:11:25.034Z,6.27
2019-01-05T07:12:25.027Z,6.18
2019-01-05T07:13:25.068Z,6.27
2019-01-05T07:14:25.002Z,6.16
2019-01-05T07:15:24.998Z,6.31
2019-01-05T07:16:24.980Z,6.25
2019-01-05T07:17:24.971Z,6.25
2019-01-05T07:18:24.985Z,6.31
2019-01-05T07:19:24.954Z,6.25
2019-01-05T07:20:24.935Z,6.32
2019-01-05T07:21:24.924Z,6.28
2019-01-05T07:22:24.915Z,6.31
2019-01-05T07:23:24.927Z,6.25
2019-01-05T07:24:24.896Z,6.24
2019-01-05T07:25:24.908Z,6.27
2019-01-05T07:26:24.873Z,6.34
2019-01-05T07:27:24.863Z,6.28
2019-01-05T07:28:24.852Z,6.38
2019-01-05T07:29:24.866Z,6.42
2019-01-05T07:30:24.832Z,6.37
2019-01-05T07:31:24.826Z,6.37
2019-01-05T07:32:24.807Z,6.37
2019-01-05T07:33:24.796Z,6.38
2019-01-05T07:34:26.171Z,6.37
2019-01-05T07:35:24.783Z,6.35
2019-01-05T07:36:24.765Z,6.45
2019-01-05T07:37:24.787Z,6.46
2019-01-05T07:38:24.747Z,6.42
2019-01-05T07:39:24.739Z,6.46
2019-01-05T07:40:24.740Z,6.43
2019-01-05T07:41:24.711Z,6.47
2019-01-05T07:42:24.717Z,6.42
2019-01-05T07:43:24.694Z,6.40
2019-01-05T07:44:24.678Z,6.45
2019-01-05T07:45:24.711Z,6.47
2019-01-05T07:46:24.661Z,6.43
2019-01-05T07:47:24.646Z,6.37
2019-01-05T07:48:24.639Z,6.43
2019-01-05T07:49:24.651Z,6.43
2019-01-05T07:50:24.618Z,6.35
2019-01-05T07:51:24.629Z,6.56
2019-01-05T07:52:24.617Z,6.43
2019-01-05T07:53:24.579Z,6.40
2019-01-05T07:54:24.569Z,6.45
2019-01-05T07:55:24.564Z,6.37
2019-01-05T07:56:24.551Z,6.47
2019-01-05T07:57:24.560Z,6.56
2019-01-05T07:58:24.526Z,6.42
2019-01-05T07:59:24.518Z,6.45
2019-01-05T08:00:24.511Z,6.42
2019-01-05T08:01:24.496Z,6.46
2019-01-05T08:02:24.504Z,6.40
2019-01-05T08:03:24.505Z,6.46
2019-01-05T08:04:24.470Z,6.50
2019-01-05T08:05:24.454Z,6.40
2019-01-05T08:06:24.466Z,6.40
2019-01-05T08:07:24.441Z,6.43
2019-01-05T08:08:24.422Z,6.46
2019-01-05T08:09:24.412Z,6.43
2019-01-05T08:10:24.400Z,6.43
2019-01-05T08:11:24.390Z,6.46
2019-01-05T08:12:24.402Z,6.42
2019-01-05T08:13:24.375Z,6.37
2019-01-05T08:14:24.372Z,6.40
2019-01-05T08:15:24.352Z,6.40
2019-01-05T08:16:24.365Z,6.49
2019-01-05T08:17:24.353Z,6.38
2019-01-05T08:18:24.333Z,6.47
2019-01-05T08:19:24.301Z,6.45
2019-01-05T08:20:24.295Z,6.46
2019-01-05T08:21:24.320Z,6.47
2019-01-05T08:22:24.300Z,6.50
2019-01-05T08:23:24.276Z,6.46
2019-01-05T08:24:24.253Z,6.47
2019-01-05T08:25:24.238Z,6.42
2019-01-05T08:26:24.256Z,6.43
2019-01-05T08:27:24.217Z,6.43
2019-01-05T08:28:24.245Z,6.43
2019-01-05T08:29:24.205Z,6.46
2019-01-05T08:30:24.187Z,6.40
2019-01-05T08:31:24.172Z,6.37
2019-01-05T08:32:24.162Z,6.42
2019-01-05T08:33:24.167Z,6.42
2019-01-05T08:34:24.136Z,6.45
2019-01-05T08:35:24.140Z,6.43
2019-01-05T08:36:24.118Z,6.47
2019-01-05T08:37:24.103Z,6.45
2019-01-05T08:38:24.116Z,6.45
2019-01-05T08:39:24.095Z,6.45
2019-01-05T08:40:24.074Z,6.42
2019-01-05T08:41:24.079Z,6.43
2019-01-05T08:42:24.660Z,6.42
2019-01-05T08:43:24.069Z,6.46
2019-01-05T08:44:24.070Z,6.37
2019-01-05T08:45:24.026Z,6.40
2019-01-05T08:46:24.010Z,6.40
2019-01-05T08:47:23.996Z,6.46
2019-01-05T08:48:23.995Z,6.38
2019-01-05T08:49:23.975Z,6.40
2019-01-05T08:50:24.004Z,6.43
2019-01-05T08:51:23.954Z,6.45
2019-01-05T08:52:23.942Z,6.47
2019-01-05T08:53:23.932Z,6.47
2019-01-05T08:54:23.925Z,6.45
2019-01-05T08:55:23.944Z,6.45
2019-01-05T08:56:23.898Z,6.38
2019-01-05T08:57:23.892Z,6.38
2019-01-05T08:58:23.877Z,6.40
2019-01-05T08:59:23.876Z,6.45
2019-01-05T09:00:23.856Z,6.43
2019-01-05T09:01:23.865Z,6.42
2019-01-05T09:02:23.956Z,6.45
2019-01-05T09:03:23.830Z,6.45
2019-01-05T09:04:23.812Z,6.38
2019-01-05T09:05:23.812Z,6.37
2019-01-05T09:06:23.811Z,6.45
2019-01-05T09:07:23.778Z,6.43
2019-01-05T09:08:23.768Z,6.49
2019-01-05T09:09:23.757Z,6.45
2019-01-05T09:10:23.747Z,6.38
2019-01-05T09:11:23.766Z,6.42
2019-01-05T09:12:23.744Z,6.43
2019-01-05T09:13:23.715Z,6.38
2019-01-05T09:14:23.706Z,6.47
2019-01-05T09:15:23.694Z,6.55
2019-01-05T09:16:23.687Z,6.47
2019-01-05T09:17:23.697Z,6.47
2019-01-05T09:18:23.662Z,6.49
2019-01-05T09:19:23.648Z,6.42
2019-01-05T09:20:23.653Z,6.49
2019-01-05T09:21:23.629Z,6.47
2019-01-05T09:22:23.638Z,6.47
2019-01-05T09:23:23.636Z,6.45
2019-01-05T09:24:23.600Z,6.49
2019-01-05T09:25:23.584Z,6.47
2019-01-05T09:26:23.574Z,6.53
2019-01-05T09:27:23.562Z,6.50
2019-01-05T09:28:23.578Z,6.60
2019-01-05T09:29:23.548Z,6.50
2019-01-05T09:30:23.566Z,6.43
2019-01-05T09:31:23.521Z,6.47
2019-01-05T09:32:23.507Z,6.50
2019-01-05T09:33:23.497Z,6.49
2019-01-05T09:34:23.507Z,6.43
2019-01-05T09:35:23.475Z,6.38
2019-01-05T09:36:23.464Z,6.40
2019-01-05T09:37:23.453Z,6.40
2019-01-05T09:38:23.447Z,6.42
2019-01-05T09:39:23.440Z,6.42
2019-01-05T09:40:23.440Z,6.49
2019-01-05T09:41:23.414Z,6.50
2019-01-05T09:42:23.448Z,6.50
2019-01-05T09:43:23.392Z,6.45
2019-01-05T09:44:23.384Z,6.42
2019-01-05T09:45:23.370Z,6.45
2019-01-05T09:46:23.376Z,6.40
2019-01-05T09:47:23.358Z,6.45
2019-01-05T09:48:23.337Z,6.49
2019-01-05T09:49:23.324Z,6.50
2019-01-05T09:50:23.323Z,6.38
2019-01-05T09:51:23.340Z,6.49
2019-01-05T09:52:23.299Z,6.46
2019-01-05T09:53:23.286Z,6.45
2019-01-05T09:54:23.267Z,6.47
2019-01-05T09:55:23.269Z,6.45
2019-01-05T09:56:23.270Z,6.42
2019-01-05T09:57:23.236Z,6.40
2019-01-05T09:58:23.225Z,6.42
2019-01-05T09:59:23.216Z,6.45
2019-01-05T10:00:23.217Z,6.45
2019-01-05T10:01:23.198Z,6.42
2019-01-05T10:02:23.211Z,6.53
2019-01-05T10:03:23.186Z,6.50
2019-01-05T10:04:23.160Z,6.53
2019-01-05T10:05:23.155Z,6.50
2019-01-05T10:06:23.138Z,6.56
2019-01-05T10:07:23.148Z,6.47
2019-01-05T10:08:23.157Z,6.49
2019-01-05T10:09:23.105Z,6.46
2019-01-05T10:10:23.099Z,6.43
2019-01-05T10:11:30.651Z,6.49
2019-01-05T10:12:32.104Z,6.45
2019-01-05T10:13:30.605Z,6.52
2019-01-05T10:14:30.594Z,6.38
2019-01-05T10:15:23.061Z,6.45
2019-01-05T10:16:23.038Z,6.50
2019-01-05T10:17:30.565Z,6.50
2019-01-05T10:18:23.086Z,6.50
2019-01-05T10:19:30.550Z,6.52
2019-01-05T10:20:30.535Z,6.46
2019-01-05T10:21:31.534Z,6.47
2019-01-05T10:22:31.794Z,6.53
2019-01-05T10:23:31.936Z,6.49
2019-01-05T10:24:31.494Z,6.50
2019-01-05T10:25:30.477Z,6.49
2019-01-05T10:26:31.744Z,6.42
2019-01-05T10:27:30.458Z,6.47
2019-01-05T10:28:32.668Z,6.42
2019-01-05T10:29:30.425Z,6.42
2019-01-05T10:31:40.654Z,6.50
2019-01-05T10:32:48.196Z,6.49
2019-01-05T10:33:49.433Z,6.46
2019-01-05T10:34:40.613Z,6.47
2019-01-05T10:35:48.230Z,6.47
2019-01-05T10:36:48.171Z,6.52
2019-01-05T10:37:40.578Z,6.50
2019-01-05T10:38:49.538Z,6.50
2019-01-05T10:39:40.561Z,6.56
2019-01-05T10:40:48.096Z,6.56
2019-01-05T10:41:49.354Z,6.57
2019-01-05T10:42:40.524Z,6.64
2019-01-05T10:43:40.511Z,6.60
2019-01-05T10:44:49.183Z,6.53
2019-01-05T10:45:40.491Z,6.61
2019-01-05T10:46:48.026Z,6.55
2019-01-05T10:47:48.004Z,6.57
2019-01-05T10:48:40.464Z,6.60
2019-01-05T10:49:40.449Z,6.64
2019-01-05T10:50:51.312Z,6.49
2019-01-05T10:51:40.424Z,6.52
2019-01-05T10:52:40.416Z,6.50
2019-01-05T10:53:40.422Z,6.57
2019-01-05T10:54:47.945Z,6.63
2019-01-05T10:55:47.930Z,6.57
2019-01-05T10:56:49.921Z,6.49
2019-01-05T10:57:47.913Z,6.53
2019-01-05T11:00:00.746Z,6.61
2019-01-05T11:02:11.758Z,6.52
2019-01-05T11:03:11.643Z,6.57
2019-01-05T11:04:11.724Z,6.57
2019-01-05T11:05:11.601Z,6.47
2019-01-05T11:06:11.589Z,6.52
2019-01-05T11:07:11.576Z,6.60
2019-01-05T11:08:11.609Z,6.56
2019-01-05T11:09:11.553Z,6.52
2019-01-05T11:10:11.552Z,6.61
2019-01-05T11:11:11.617Z,6.60
2019-01-05T11:12:11.521Z,6.60
2019-01-05T11:13:11.533Z,6.56
2019-01-05T11:14:11.511Z,6.63
2019-01-05T11:15:11.496Z,6.53
2019-01-05T11:16:11.641Z,6.55
2019-01-05T11:17:11.492Z,6.64
2019-01-05T11:18:11.535Z,6.61
2019-01-05T11:19:11.462Z,6.52
2019-01-05T11:20:11.503Z,6.64
2019-01-05T11:21:21.344Z,6.57
2019-01-05T11:22:11.419Z,6.61
2019-01-05T11:23:11.433Z,6.57
2019-01-05T11:24:19.051Z,6.53
2019-01-05T11:25:11.428Z,6.64
2019-01-05T11:26:11.391Z,6.61
2019-01-05T11:27:11.380Z,6.60
2019-01-05T11:28:11.352Z,6.70
2019-01-05T11:29:11.393Z,6.60
2019-01-05T11:30:11.330Z,6.57
2019-01-05T11:31:11.331Z,6.53
2019-01-05T11:32:11.315Z,6.50
2019-01-05T11:33:11.316Z,6.65
2019-01-05T11:34:11.406Z,6.55
2019-01-05T11:35:11.399Z,6.63
2019-01-05T11:36:11.273Z,6.61
2019-01-05T11:37:11.289Z,6.67
2019-01-05T11:38:11.249Z,6.57
2019-01-05T11:39:11.270Z,6.68
2019-01-05T11:40:11.249Z,6.70
2019-01-05T11:41:11.256Z,6.67
2019-01-05T11:42:11.265Z,6.68
2019-01-05T11:43:11.202Z,6.61
2019-01-05T11:44:11.195Z,6.67
2019-01-05T11:45:11.191Z,6.67
2019-01-05T11:46:11.159Z,6.75
2019-01-05T11:47:11.150Z,6.70
2019-01-05T11:48:11.159Z,6.79
2019-01-05T11:49:11.130Z,6.65
2019-01-05T11:50:11.157Z,6.65
2019-01-05T11:51:11.117Z,6.73
2019-01-05T11:52:11.167Z,6.74
2019-01-05T11:53:11.091Z,6.73
2019-01-05T11:54:11.089Z,6.68
2019-01-05T11:55:11.107Z,6.67
2019-01-05T11:57:28.266Z,6.60
2019-01-05T11:58:28.230Z,6.68
2019-01-05T11:59:28.225Z,6.67
2019-01-05T12:00:28.241Z,6.61
2019-01-05T12:01:28.209Z,6.64
2019-01-05T12:02:28.445Z,6.63
2019-01-05T12:03:35.729Z,6.73
2019-01-05T12:04:28.388Z,6.68
2019-01-05T12:05:28.396Z,6.70
2019-01-05T12:06:28.163Z,6.67
2019-01-05T12:07:28.133Z,6.78
2019-01-05T12:08:28.141Z,6.68
2019-01-05T12:09:28.109Z,6.73
2019-01-05T12:10:28.101Z,6.64
2019-01-05T12:11:28.106Z,6.73
2019-01-05T12:12:28.079Z,6.74
2019-01-05T12:13:28.120Z,6.75
2019-01-05T12:14:28.057Z,6.78
2019-01-05T12:15:28.050Z,6.64
2019-01-05T12:16:28.078Z,6.74
2019-01-05T12:17:28.051Z,6.64
2019-01-05T12:18:28.229Z,6.71
2019-01-05T12:19:28.015Z,6.70
2019-01-05T12:20:28.017Z,6.67
2019-01-05T12:21:27.989Z,6.73
2019-01-05T12:22:28.012Z,6.65
2019-01-05T12:23:27.974Z,6.71
2019-01-05T12:24:27.951Z,6.68
2019-01-05T12:25:27.946Z,6.71
2019-01-05T12:26:27.955Z,6.81
2019-01-05T12:27:27.948Z,6.68
2019-01-05T12:28:27.940Z,6.71
2019-01-05T12:29:27.934Z,6.67
2019-01-05T12:30:27.896Z,6.71
2019-01-05T12:31:27.885Z,6.68
2019-01-05T12:32:27.865Z,6.67
2019-01-05T12:33:27.903Z,6.74
2019-01-05T12:34:27.892Z,6.67
2019-01-05T12:35:27.848Z,6.67
2019-01-05T12:36:27.814Z,6.68
2019-01-05T12:37:27.824Z,6.70
2019-01-05T12:38:27.792Z,6.70
2019-01-05T12:39:27.805Z,6.73
2019-01-05T12:40:27.774Z,6.70
2019-01-05T12:41:27.762Z,6.64
2019-01-05T12:42:27.766Z,6.73
2019-01-05T12:43:27.749Z,6.67
2019-01-05T12:44:27.753Z,6.64
2019-01-05T12:45:27.720Z,6.68
2019-01-05T12:46:27.712Z,6.68
2019-01-05T12:47:27.699Z,6.70
2019-01-05T12:48:27.698Z,6.73
2019-01-05T12:49:27.675Z,6.70
2019-01-05T12:50:27.685Z,6.70
2019-01-05T12:51:27.665Z,6.70
2019-01-05T12:52:27.690Z,6.68
2019-01-05T12:53:27.636Z,6.68
2019-01-05T12:54:27.625Z,6.63
2019-01-05T12:55:27.714Z,6.67
2019-01-05T12:56:27.620Z,6.61
2019-01-05T12:57:27.611Z,6.63
2019-01-05T12:58:27.576Z,6.67
2019-01-05T12:59:27.567Z,6.68
2019-01-05T13:00:27.604Z,6.68
2019-01-05T13:01:27.566Z,6.74
2019-01-05T13:02:27.534Z,6.73
2019-01-05T13:03:27.546Z,6.71
2019-01-05T13:04:27.517Z,6.67
2019-01-05T13:05:27.506Z,6.71
2019-01-05T13:06:27.524Z,6.71
2019-01-05T13:07:27.497Z,6.65
2019-01-05T13:08:27.494Z,6.64
2019-01-05T13:09:27.457Z,6.64
2019-01-05T13:10:27.445Z,6.64
2019-01-05T13:11:27.450Z,6.68
2019-01-05T13:12:27.440Z,6.71
2019-01-05T13:13:27.409Z,6.71
2019-01-05T13:14:27.401Z,6.65
2019-01-05T13:15:27.428Z,6.64
2019-01-05T13:16:27.378Z,6.57
2019-01-05T13:17:27.392Z,6.64
2019-01-05T13:18:27.378Z,6.68
2019-01-05T13:19:27.985Z,6.65
2019-01-05T13:20:27.341Z,6.68
2019-01-05T13:21:27.330Z,6.64
2019-01-05T13:22:27.376Z,6.53
2019-01-05T13:23:27.300Z,6.67